createdAt,value
2023-05-09T04:30:11.316Z,8.88
2023-05-09T04:32:46.005Z,10.57
2023-05-09T04:35:14.158Z,10.38
2023-05-09T04:37:44.133Z,9.48
2023-05-09T04:40:11.618Z,10.55
2023-05-09T04:42:38.802Z,12.18
2023-05-09T04:45:06.294Z,14.55
2023-05-09T04:47:33.082Z,13.20
2023-05-09T04:49:59.679Z,10.80
2023-05-09T04:52:29.440Z,10.30
2023-05-09T04:54:56.266Z,10.85
2023-05-09T04:57:22.894Z,10.50
2023-05-09T04:59:50.464Z,13.40
2023-05-09T05:02:17.138Z,12.23
2023-05-09T05:04:43.977Z,14.80
2023-05-09T05:07:10.665Z,10.05
2023-05-09T05:09:37.487Z,13.43
2023-05-09T05:12:09.392Z,11.90
2023-05-09T05:14:36.439Z,11.13
2023-05-09T05:17:03.146Z,10.65
2023-05-09T05:19:29.770Z,11.43
2023-05-09T05:21:56.402Z,10.65
2023-05-09T05:24:23.152Z,10.07
2023-05-09T05:26:49.803Z,9.95
2023-05-09T05:29:17.644Z,11.07
2023-05-09T05:31:44.277Z,8.18
2023-05-09T05:34:10.904Z,9.27
2023-05-09T05:36:37.573Z,9.07
2023-05-09T05:39:04.513Z,15.10
2023-05-09T05:41:31.129Z,12.20
2023-05-09T05:43:58.803Z,9.52
2023-05-09T05:46:27.528Z,10.57
2023-05-09T05:48:54.188Z,9.38
2023-05-09T05:51:21.233Z,13.00
2023-05-09T05:53:47.844Z,9.55
2023-05-09T05:56:14.519Z,9.35
2023-05-09T05:58:44.206Z,11.73
2023-05-09T06:01:10.846Z,10.25
2023-05-09T06:03:37.553Z,8.80
2023-05-09T06:06:04.508Z,8.60
2023-05-09T06:08:31.277Z,9.32
2023-05-09T06:10:57.903Z,10.70
2023-05-09T06:13:24.559Z,9.40
2023-05-09T06:15:51.285Z,12.55
2023-05-09T06:18:17.932Z,11.93
2023-05-09T06:20:44.620Z,10.52
2023-05-09T06:23:11.264Z,18.85
2023-05-09T06:25:37.925Z,13.90
2023-05-09T06:28:04.587Z,8.55
2023-05-09T06:30:31.197Z,9.63
2023-05-09T06:32:58.313Z,9.10
2023-05-09T06:35:25.096Z,9.32
2023-05-09T06:37:51.762Z,9.95
2023-05-09T06:40:18.452Z,7.57
2023-05-09T06:42:45.576Z,9.55
2023-05-09T06:45:12.511Z,7.03
2023-05-09T06:47:39.351Z,11.63
2023-05-09T06:50:06.854Z,7.15
2023-05-09T06:52:33.459Z,12.85
2023-05-09T06:55:00.182Z,10.13
2023-05-09T06:57:27.033Z,7.80
2023-05-09T06:59:53.646Z,12.48
2023-05-09T07:02:20.389Z,10.75
2023-05-09T07:04:47.217Z,7.70
2023-05-09T07:07:13.900Z,12.68
2023-05-09T07:09:40.591Z,7.68
2023-05-09T07:12:07.475Z,7.18
2023-05-09T07:14:34.122Z,6.63
2023-05-09T07:17:14.259Z,6.90
2023-05-09T07:19:47.402Z,9.30
2023-05-09T07:22:14.090Z,7.20
2023-05-09T07:24:40.709Z,6.47
2023-05-09T07:27:07.379Z,6.63
2023-05-09T07:29:34.065Z,8.48
2023-05-09T07:32:00.783Z,6.78
2023-05-09T07:34:27.483Z,9.57
2023-05-09T07:36:54.126Z,6.68
2023-05-09T07:39:20.736Z,6.38
2023-05-09T07:41:48.687Z,7.82
2023-05-09T07:44:16.071Z,7.90
2023-05-09T07:46:42.979Z,7.47
2023-05-09T07:49:09.725Z,7.03
2023-05-09T07:51:36.436Z,10.07
2023-05-09T07:54:03.186Z,7.07
2023-05-09T07:56:29.793Z,11.95
2023-05-09T07:58:56.407Z,8.50
2023-05-09T08:01:23.045Z,7.60
2023-05-09T08:03:49.776Z,15.77
2023-05-09T08:06:16.590Z,9.95
2023-05-09T08:08:43.237Z,7.47
2023-05-09T08:11:10.027Z,9.27
2023-05-09T08:13:36.848Z,8.60
2023-05-09T08:16:03.767Z,6.88
2023-05-09T08:18:30.448Z,8.50
2023-05-09T08:20:58.633Z,6.60
2023-05-09T08:23:26.461Z,7.38
2023-05-09T08:25:54.559Z,6.88
2023-05-09T08:28:24.373Z,6.85
2023-05-09T08:30:52.165Z,10.13
2023-05-09T08:33:19.180Z,7.55
2023-05-09T08:35:50.159Z,9.75
2023-05-09T08:38:16.737Z,11.55
2023-05-09T08:40:43.532Z,14.18
2023-05-09T08:43:11.885Z,7.28
2023-05-09T08:45:50.042Z,10.05
2023-05-09T08:48:18.114Z,8.52
2023-05-09T08:50:44.854Z,9.77
2023-05-09T08:53:12.614Z,10.13
2023-05-09T08:55:39.588Z,13.73
2023-05-09T08:58:07.197Z,7.40
2023-05-09T09:00:33.994Z,7.93
2023-05-09T09:03:04.110Z,7.70
2023-05-09T09:05:41.187Z,7.13
2023-05-09T09:08:10.274Z,6.85
2023-05-09T09:10:42.034Z,7.93
2023-05-09T09:13:12.547Z,9.73
2023-05-09T09:15:41.668Z,7.97
2023-05-09T09:18:12.465Z,10.65
2023-05-09T09:21:01.720Z,11.98
2023-05-09T09:23:30.402Z,7.20
2023-05-09T09:26:02.176Z,7.20
2023-05-09T09:28:29.104Z,7.40
2023-05-09T09:30:55.894Z,11.18
2023-05-09T09:33:23.993Z,7.07
2023-05-09T09:35:52.470Z,8.15
2023-05-09T09:38:20.674Z,6.82
2023-05-09T09:40:57.604Z,8.77
2023-05-09T09:43:31.458Z,11.77
2023-05-09T09:46:02.480Z,8.82
2023-05-09T09:48:34.464Z,11.07
2023-05-09T09:51:10.294Z,9.93
2023-05-09T09:53:43.761Z,7.57
2023-05-09T09:56:11.214Z,7.65
2023-05-09T09:58:37.924Z,10.18
2023-05-09T10:01:09.512Z,8.13
2023-05-09T10:03:54.460Z,6.82
2023-05-09T10:06:23.158Z,14.10
2023-05-09T10:08:49.897Z,8.32
2023-05-09T10:11:16.600Z,6.72
2023-05-09T10:13:44.599Z,8.98
2023-05-09T10:16:14.604Z,7.65
2023-05-09T10:18:44.061Z,7.35
2023-05-09T10:21:14.563Z,9.05
2023-05-09T10:23:48.656Z,6.45
2023-05-09T10:26:27.581Z,7.63
2023-05-09T10:28:59.975Z,8.23
2023-05-09T10:31:28.210Z,7.60
2023-05-09T10:33:58.774Z,6.95
2023-05-09T10:36:25.539Z,9.80
2023-05-09T10:38:56.355Z,7.80
2023-05-09T10:41:24.024Z,10.38
2023-05-09T10:43:51.241Z,8.93
2023-05-09T10:46:18.472Z,8.88
2023-05-09T10:48:45.652Z,7.80
2023-05-09T10:51:13.332Z,8.57
2023-05-09T10:53:50.382Z,8.18
2023-05-09T10:56:29.985Z,9.20
2023-05-09T11:01:38.992Z,8.70
2023-05-09T11:04:11.245Z,10.32
2023-05-09T11:06:44.886Z,7.90
2023-05-09T11:09:41.507Z,8.10
2023-05-09T11:12:13.107Z,8.75
2023-05-09T11:14:44.850Z,8.38
2023-05-09T11:17:26.746Z,8.93
2023-05-09T11:19:53.336Z,8.88
2023-05-09T11:22:28.822Z,6.85
2023-05-09T11:25:07.725Z,11.82
2023-05-09T11:27:40.298Z,9.73
2023-05-09T11:30:08.850Z,6.03
2023-05-09T11:32:52.170Z,9.07
2023-05-09T11:35:21.534Z,6.70
2023-05-09T11:37:49.711Z,6.50
2023-05-09T11:40:22.052Z,12.82
2023-05-09T11:42:56.210Z,7.97
2023-05-09T11:45:27.472Z,6.13
2023-05-09T11:50:24.777Z,6.00
2023-05-09T11:52:51.734Z,7.50
2023-05-09T11:55:22.795Z,8.90
2023-05-09T11:57:52.806Z,9.73
2023-05-09T12:00:22.469Z,8.83
2023-05-09T12:05:19.758Z,17.05
2023-05-09T12:07:47.150Z,9.60
2023-05-09T12:10:16.328Z,8.27
2023-05-09T12:12:44.756Z,7.72
2023-05-09T12:15:13.726Z,10.70
2023-05-09T12:17:41.821Z,8.00
2023-05-09T12:20:10.542Z,5.82
2023-05-09T12:22:37.686Z,11.50
2023-05-09T12:25:11.919Z,11.75
2023-05-09T12:27:40.715Z,6.82
2023-05-09T12:30:10.226Z,4.80
2023-05-09T12:35:10.753Z,16.88
2023-05-09T12:37:37.817Z,8.23
2023-05-09T12:40:13.184Z,11.27
2023-05-09T12:42:44.655Z,5.80
2023-05-09T12:45:11.892Z,8.80
2023-05-09T12:47:39.227Z,7.30
2023-05-09T12:50:07.473Z,5.50
2023-05-09T12:52:58.554Z,6.00
2023-05-09T12:55:31.244Z,15.05
2023-05-09T12:58:00.713Z,6.50
2023-05-09T13:00:27.995Z,7.93
2023-05-09T13:02:54.912Z,6.75
2023-05-09T13:05:23.360Z,6.63
2023-05-09T13:07:52.668Z,12.10
2023-05-09T13:10:23.810Z,7.90
2023-05-09T13:12:51.591Z,7.18
2023-05-09T13:15:23.036Z,10.02
2023-05-09T13:17:51.293Z,8.10
2023-05-09T13:20:19.215Z,5.35
2023-05-09T13:22:47.508Z,5.32
2023-05-09T13:25:14.374Z,5.65
2023-05-09T13:27:41.035Z,7.50
2023-05-09T13:30:11.112Z,9.52
2023-05-09T13:32:37.810Z,5.55
2023-05-09T13:35:07.568Z,7.03
2023-05-09T13:37:35.016Z,6.50
2023-05-09T13:40:02.380Z,7.85
2023-05-09T13:42:29.084Z,11.75
2023-05-09T13:44:58.076Z,8.70
2023-05-09T13:47:24.886Z,7.80
2023-05-09T13:49:54.532Z,7.80
2023-05-09T13:54:47.820Z,5.60
2023-05-09T13:57:14.478Z,10.35
2023-05-09T13:59:41.696Z,5.53
2023-05-09T14:02:08.509Z,6.60
2023-05-09T14:04:35.489Z,5.88
2023-05-09T14:07:02.328Z,4.97
2023-05-09T14:09:38.234Z,4.30
2023-05-09T14:12:05.163Z,4.05
2023-05-09T14:14:32.014Z,5.32
2023-05-09T14:16:59.330Z,7.05
2023-05-09T14:19:27.177Z,8.63
2023-05-09T14:21:53.914Z,7.07
2023-05-09T14:24:20.549Z,6.57
2023-05-09T14:26:47.198Z,6.07
2023-05-09T14:29:13.881Z,8.07
2023-05-09T14:31:40.801Z,5.28
2023-05-09T14:34:07.587Z,8.43
2023-05-09T14:36:34.237Z,12.05
2023-05-09T14:39:00.855Z,4.97
2023-05-09T14:41:27.509Z,5.40
2023-05-09T14:43:54.448Z,4.50
2023-05-09T14:46:21.350Z,8.27
2023-05-09T14:48:48.007Z,7.18
2023-05-09T14:51:17.707Z,8.18
2023-05-09T14:53:44.972Z,7.35
2023-05-09T14:56:14.688Z,8.43
2023-05-09T14:58:41.568Z,7.97
2023-05-09T15:01:08.334Z,5.97
2023-05-09T15:03:36.548Z,11.07
2023-05-09T15:06:03.399Z,6.45
2023-05-09T15:08:29.988Z,5.95
2023-05-09T15:10:58.069Z,6.65
2023-05-09T15:13:24.838Z,4.68
2023-05-09T15:15:51.528Z,6.30
2023-05-09T15:18:20.072Z,5.70
2023-05-09T15:20:46.729Z,7.93
2023-05-09T15:23:13.420Z,9.85
2023-05-09T15:25:41.350Z,4.90
2023-05-09T15:28:08.074Z,7.22
2023-05-09T15:30:38.253Z,8.35
2023-05-09T15:33:05.346Z,13.05
2023-05-09T15:35:32.064Z,8.23
2023-05-09T15:37:58.776Z,10.57
2023-05-09T15:40:25.530Z,9.38
2023-05-09T15:42:55.344Z,7.85
2023-05-09T15:45:22.132Z,10.23
2023-05-09T15:47:48.907Z,9.35
2023-05-09T15:50:16.568Z,10.55
2023-05-09T15:52:43.544Z,6.28
2023-05-09T15:55:12.511Z,6.63
2023-05-09T15:57:41.205Z,6.35
2023-05-09T16:00:08.771Z,22.35
2023-05-09T16:02:36.738Z,28.42
2023-05-09T16:05:04.637Z,18.58
2023-05-09T16:07:32.691Z,7.25
2023-05-09T16:10:03.449Z,14.63
2023-05-09T16:12:33.161Z,7.03
2023-05-09T16:15:01.253Z,7.68
2023-05-09T16:17:28.004Z,8.52
2023-05-09T16:19:55.430Z,12.43
2023-05-09T16:22:22.102Z,21.48
2023-05-09T16:24:50.281Z,8.45
2023-05-09T16:27:17.800Z,14.73
2023-05-09T16:29:45.010Z,6.93
2023-05-09T16:32:11.702Z,10.85
2023-05-09T16:34:38.469Z,8.55
2023-05-09T16:37:05.129Z,12.75
2023-05-09T16:39:33.534Z,6.50
2023-05-09T16:42:00.165Z,6.30
2023-05-09T16:44:27.016Z,8.75
2023-05-09T16:46:53.759Z,5.80
2023-05-09T16:49:23.679Z,9.48
2023-05-09T16:51:51.204Z,9.82
2023-05-09T16:54:17.925Z,9.60
2023-05-09T16:56:47.164Z,11.23
2023-05-09T16:59:14.947Z,8.80
2023-05-09T17:01:42.404Z,7.72
2023-05-09T17:04:09.109Z,9.02
2023-05-09T17:06:35.734Z,20.92
2023-05-09T17:09:02.375Z,20.55
2023-05-09T17:11:31.526Z,21.33
2023-05-09T17:13:58.352Z,16.42
2023-05-09T17:16:24.965Z,16.20
2023-05-09T17:18:54.414Z,20.75
2023-05-09T17:21:21.104Z,20.80
2023-05-09T17:23:49.776Z,20.02
2023-05-09T17:26:16.503Z,23.70
2023-05-09T17:28:43.164Z,18.58
2023-05-09T17:31:09.896Z,20.30
2023-05-09T17:33:36.527Z,16.75
2023-05-09T17:36:03.816Z,22.17
2023-05-09T17:38:30.747Z,22.17
2023-05-09T17:40:57.445Z,23.83
2023-05-09T17:43:24.350Z,17.90
2023-05-09T17:45:52.433Z,17.00
2023-05-09T17:48:19.390Z,17.92
2023-05-09T17:50:49.928Z,13.15
2023-05-09T17:53:16.605Z,16.10
2023-05-09T17:55:43.369Z,21.60
2023-05-09T17:58:10.194Z,17.98
2023-05-09T18:00:36.956Z,16.08
2023-05-09T18:03:05.344Z,21.95
2023-05-09T18:05:32.105Z,13.50
2023-05-09T18:08:00.881Z,21.85
2023-05-09T18:10:28.788Z,16.35
2023-05-09T18:12:55.573Z,20.13
2023-05-09T18:15:22.312Z,28.05
2023-05-09T18:17:49.448Z,18.98
2023-05-09T18:20:16.407Z,18.33
2023-05-09T18:22:43.145Z,26.65
2023-05-09T18:25:10.254Z,16.77
2023-05-09T18:27:36.947Z,28.08
2023-05-09T18:30:03.741Z,22.90
2023-05-09T18:32:30.368Z,13.50
2023-05-09T18:34:57.083Z,16.52
2023-05-09T18:37:24.760Z,21.52
2023-05-09T18:39:51.401Z,23.20
2023-05-09T18:42:18.296Z,25.33
2023-05-09T18:44:45.000Z,22.00
2023-05-09T18:47:12.070Z,32.58
2023-05-09T18:49:39.080Z,44.08
2023-05-09T18:52:05.713Z,30.75
2023-05-09T18:54:33.481Z,37.30
2023-05-09T18:57:00.157Z,25.90
2023-05-09T18:59:26.795Z,25.27
2023-05-09T19:01:53.556Z,25.52
2023-05-09T19:04:20.300Z,20.08
2023-05-09T19:06:47.317Z,18.08
2023-05-09T19:09:14.068Z,10.73
2023-05-09T19:11:43.322Z,7.43
2023-05-09T19:14:10.027Z,11.52
2023-05-09T19:16:36.725Z,8.45
2023-05-09T19:19:03.389Z,14.02
2023-05-09T19:21:30.188Z,9.75
2023-05-09T19:23:59.934Z,6.03
2023-05-09T19:26:26.576Z,16.10
2023-05-09T19:28:53.772Z,7.10
2023-05-09T19:31:20.585Z,14.13
2023-05-09T19:33:50.397Z,8.35
2023-05-09T19:36:18.410Z,6.85
2023-05-09T19:38:46.550Z,9.02
2023-05-09T19:41:13.983Z,9.10
2023-05-09T19:43:42.180Z,9.80
2023-05-09T19:46:09.358Z,13.30
2023-05-09T19:48:36.143Z,7.03
2023-05-09T19:51:03.170Z,13.30
2023-05-09T19:53:30.007Z,10.77
2023-05-09T19:55:56.727Z,13.73
2023-05-09T19:58:24.492Z,10.52
2023-05-09T20:00:51.161Z,8.15
2023-05-09T20:03:17.843Z,10.65
2023-05-09T20:05:45.954Z,13.80
2023-05-09T20:08:12.701Z,16.25
2023-05-09T20:10:39.452Z,9.30
2023-05-09T20:13:09.196Z,8.98
2023-05-09T20:18:03.698Z,11.68
2023-05-09T20:20:33.256Z,7.00
2023-05-09T20:23:00.146Z,8.40
2023-05-09T20:25:27.799Z,10.60
2023-05-09T20:27:54.422Z,9.23
2023-05-09T20:30:21.132Z,6.97
2023-05-09T20:32:47.850Z,15.18
2023-05-09T20:35:14.652Z,8.98
2023-05-09T20:37:41.273Z,8.35
2023-05-09T20:40:09.706Z,19.20
2023-05-09T20:42:36.430Z,9.63
2023-05-09T20:45:03.388Z,11.68
2023-05-09T20:47:30.090Z,10.32
2023-05-09T20:49:58.391Z,12.18
2023-05-09T20:52:25.518Z,9.35
2023-05-09T20:54:52.335Z,8.10
2023-05-09T20:57:18.928Z,8.73
2023-05-09T20:59:45.644Z,11.82
2023-05-09T21:02:12.443Z,7.97
2023-05-09T21:04:39.172Z,12.27
2023-05-09T21:07:05.780Z,15.55
2023-05-09T21:09:33.953Z,8.70
2023-05-09T21:12:00.758Z,14.10
2023-05-09T21:14:27.337Z,9.10
2023-05-09T21:16:55.164Z,10.40
2023-05-09T21:19:21.867Z,14.68
2023-05-09T21:21:48.566Z,9.13
2023-05-09T21:24:18.330Z,10.77
2023-05-09T21:26:45.005Z,8.93
2023-05-09T21:29:11.669Z,10.18
2023-05-09T21:31:38.380Z,9.63
2023-05-09T21:34:09.888Z,9.45
2023-05-09T21:36:40.633Z,8.50
2023-05-09T21:39:09.694Z,9.63
2023-05-09T21:41:38.060Z,9.30
2023-05-09T21:44:05.809Z,14.13
2023-05-09T21:46:35.278Z,9.65
2023-05-09T21:49:02.084Z,9.57
2023-05-09T21:51:29.328Z,13.65
2023-05-09T21:53:56.056Z,9.07
2023-05-09T21:56:23.249Z,10.30
2023-05-09T21:58:50.005Z,8.45
2023-05-09T22:01:19.567Z,10.68
2023-05-09T22:03:46.405Z,11.35
2023-05-09T22:06:14.855Z,10.98
2023-05-09T22:08:41.475Z,11.63
2023-05-09T22:11:08.269Z,12.52
2023-05-09T22:13:36.383Z,15.30
2023-05-09T22:16:04.072Z,11.30
2023-05-09T22:18:32.437Z,15.48
2023-05-09T22:21:02.165Z,11.25
2023-05-09T22:23:28.829Z,10.68
2023-05-09T22:25:55.647Z,15.13
2023-05-09T22:28:22.335Z,11.77
2023-05-09T22:30:48.972Z,11.57
2023-05-09T22:33:15.569Z,14.35
2023-05-09T22:35:43.227Z,12.98
2023-05-09T22:38:09.889Z,11.32
2023-05-09T22:40:36.736Z,11.63
2023-05-09T22:43:03.428Z,14.30
2023-05-09T22:45:30.124Z,10.45
2023-05-09T22:47:56.921Z,12.38
2023-05-09T22:50:23.586Z,11.77
2023-05-09T22:52:57.877Z,14.20
2023-05-09T22:55:24.528Z,13.07
2023-05-09T22:57:51.189Z,15.75
2023-05-09T23:00:18.354Z,15.88
2023-05-09T23:02:48.021Z,13.32
2023-05-09T23:05:14.841Z,12.10
2023-05-09T23:07:41.866Z,11.77
2023-05-09T23:10:08.807Z,13.55
2023-05-09T23:12:38.135Z,10.45
2023-05-09T23:15:06.344Z,15.23
2023-05-09T23:17:32.949Z,13.15
2023-05-09T23:20:00.716Z,10.63
2023-05-09T23:22:28.419Z,11.55
2023-05-09T23:24:55.030Z,11.75
2023-05-09T23:27:21.827Z,10.82
2023-05-09T23:29:48.818Z,12.43
2023-05-09T23:32:15.500Z,13.18
2023-05-09T23:34:42.173Z,10.50
2023-05-09T23:37:08.800Z,12.93
2023-05-09T23:39:38.111Z,12.48
2023-05-09T23:42:04.823Z,16.35
2023-05-09T23:44:31.681Z,14.43
2023-05-09T23:46:58.389Z,11.85
2023-05-09T23:49:25.214Z,13.32
2023-05-09T23:51:51.895Z,13.23
2023-05-09T23:54:18.779Z,12.20
2023-05-09T23:56:45.448Z,13.32
2023-05-09T23:59:12.061Z,12.52
